Wigton, United Kingdom
Current Conditions -  °F | °C
As of 2:20 PM on Thursday 27 Nov 2014 (Local Time) from EGNC Reporting Station
Broken Clouds Broken Clouds  
Wind Chill: 46°   Ceiling: 2100
Heat Index: 46°   Visibility: 5mi
Dew Point: 46°   Wind: 2mph
Humidity: 100%   Direction: 70°ENE
Pressure: 29.56"   Gusts: NA
Location:  54.82°N, 3.16°W
Report Text: EGNC 271420Z 07002KT 8000 FEW008 SCT015 BKN021 08/08 Q1001
Loading
Personal Weather Stations






























Interactive Weather Map New forecast layout! Learn more

10-Day Weather Forecast

Advertisements
Track Severe Weather on mobile